sensor_id;sensor_type;location;lat;lon;timestamp;P1;durP1;ratioP1;P2;durP2;ratioP2
20830;SDS011;10576;53.556;9.868;2023-04-16T00:00:37;22.25;;;15.98;;
20830;SDS011;10576;53.556;9.868;2023-04-16T00:03:03;21.90;;;17.00;;
20830;SDS011;10576;53.556;9.868;2023-04-16T00:05:29;23.45;;;16.95;;
20830;SDS011;10576;53.556;9.868;2023-04-16T00:07:54;22.33;;;16.87;;
20830;SDS011;10576;53.556;9.868;2023-04-16T00:10:20;23.77;;;16.93;;
20830;SDS011;10576;53.556;9.868;2023-04-16T00:12:46;22.17;;;16.87;;
20830;SDS011;10576;53.556;9.868;2023-04-16T00:15:11;23.27;;;16.57;;
20830;SDS011;10576;53.556;9.868;2023-04-16T00:17:37;23.60;;;16.30;;
20830;SDS011;10576;53.556;9.868;2023-04-16T00:20:03;23.37;;;16.53;;
20830;SDS011;10576;53.556;9.868;2023-04-16T00:22:29;21.88;;;16.67;;
20830;SDS011;10576;53.556;9.868;2023-04-16T00:24:55;22.40;;;16.80;;
20830;SDS011;10576;53.556;9.868;2023-04-16T00:27:20;22.02;;;16.52;;
20830;SDS011;10576;53.556;9.868;2023-04-16T00:29:46;22.55;;;16.27;;
20830;SDS011;10576;53.556;9.868;2023-04-16T00:32:12;22.83;;;17.55;;
20830;SDS011;10576;53.556;9.868;2023-04-16T00:34:37;23.73;;;16.90;;
20830;SDS011;10576;53.556;9.868;2023-04-16T00:37:03;23.83;;;16.70;;
20830;SDS011;10576;53.556;9.868;2023-04-16T00:39:28;20.23;;;16.30;;
20830;SDS011;10576;53.556;9.868;2023-04-16T00:41:54;24.23;;;16.23;;
20830;SDS011;10576;53.556;9.868;2023-04-16T00:44:20;22.48;;;15.70;;
20830;SDS011;10576;53.556;9.868;2023-04-16T00:46:45;19.13;;;15.53;;
20830;SDS011;10576;53.556;9.868;2023-04-16T00:49:11;22.03;;;16.37;;
20830;SDS011;10576;53.556;9.868;2023-04-16T00:51:37;22.17;;;16.13;;
20830;SDS011;10576;53.556;9.868;2023-04-16T00:54:03;24.00;;;15.87;;
20830;SDS011;10576;53.556;9.868;2023-04-16T00:56:29;23.30;;;15.80;;
20830;SDS011;10576;53.556;9.868;2023-04-16T00:58:57;22.75;;;15.93;;
20830;SDS011;10576;53.556;9.868;2023-04-16T01:01:26;20.98;;;15.63;;
20830;SDS011;10576;53.556;9.868;2023-04-16T01:03:52;22.80;;;15.70;;
20830;SDS011;10576;53.556;9.868;2023-04-16T01:06:19;22.00;;;15.73;;
20830;SDS011;10576;53.556;9.868;2023-04-16T01:08:45;18.75;;;15.40;;
20830;SDS011;10576;53.556;9.868;2023-04-16T01:11:12;22.17;;;16.05;;
20830;SDS011;10576;53.556;9.868;2023-04-16T01:13:39;19.60;;;15.07;;
20830;SDS011;10576;53.556;9.868;2023-04-16T01:16:09;22.92;;;15.88;;
20830;SDS011;10576;53.556;9.868;2023-04-16T01:18:36;19.90;;;15.27;;
20830;SDS011;10576;53.556;9.868;2023-04-16T01:21:02;21.08;;;15.27;;
20830;SDS011;10576;53.556;9.868;2023-04-16T01:23:29;19.05;;;15.20;;
20830;SDS011;10576;53.556;9.868;2023-04-16T01:25:55;19.75;;;15.40;;
20830;SDS011;10576;53.556;9.868;2023-04-16T01:28:21;21.35;;;15.40;;
20830;SDS011;10576;53.556;9.868;2023-04-16T01:30:47;22.15;;;15.10;;
20830;SDS011;10576;53.556;9.868;2023-04-16T01:33:13;21.95;;;15.25;;
20830;SDS011;10576;53.556;9.868;2023-04-16T01:35:39;20.70;;;15.03;;
20830;SDS011;10576;53.556;9.868;2023-04-16T01:38:06;21.15;;;15.48;;
20830;SDS011;10576;53.556;9.868;2023-04-16T01:40:33;20.80;;;15.50;;
20830;SDS011;10576;53.556;9.868;2023-04-16T01:42:59;22.40;;;15.13;;
20830;SDS011;10576;53.556;9.868;2023-04-16T01:45:25;22.65;;;14.63;;
20830;SDS011;10576;53.556;9.868;2023-04-16T01:47:51;20.20;;;14.38;;
20830;SDS011;10576;53.556;9.868;2023-04-16T01:50:17;19.50;;;14.33;;
20830;SDS011;10576;53.556;9.868;2023-04-16T01:52:44;19.50;;;14.75;;
20830;SDS011;10576;53.556;9.868;2023-04-16T01:55:09;20.75;;;15.25;;
20830;SDS011;10576;53.556;9.868;2023-04-16T01:57:35;19.90;;;15.03;;
20830;SDS011;10576;53.556;9.868;2023-04-16T02:00:01;18.63;;;14.40;;
20830;SDS011;10576;53.556;9.868;2023-04-16T02:02:28;21.88;;;15.25;;
20830;SDS011;10576;53.556;9.868;2023-04-16T02:04:55;20.58;;;14.63;;
20830;SDS011;10576;53.556;9.868;2023-04-16T02:07:21;19.40;;;14.65;;
20830;SDS011;10576;53.556;9.868;2023-04-16T02:09:48;19.73;;;14.60;;
20830;SDS011;10576;53.556;9.868;2023-04-16T02:12:16;20.23;;;14.32;;
20830;SDS011;10576;53.556;9.868;2023-04-16T02:14:42;20.60;;;14.85;;
20830;SDS011;10576;53.556;9.868;2023-04-16T02:17:08;20.80;;;14.90;;
20830;SDS011;10576;53.556;9.868;2023-04-16T02:19:34;20.80;;;14.73;;
20830;SDS011;10576;53.556;9.868;2023-04-16T02:22:00;21.35;;;14.68;;
20830;SDS011;10576;53.556;9.868;2023-04-16T02:24:26;20.10;;;14.10;;
20830;SDS011;10576;53.556;9.868;2023-04-16T02:26:52;20.88;;;15.40;;
20830;SDS011;10576;53.556;9.868;2023-04-16T02:29:18;21.27;;;15.03;;
20830;SDS011;10576;53.556;9.868;2023-04-16T02:31:44;20.48;;;14.55;;
20830;SDS011;10576;53.556;9.868;2023-04-16T02:34:10;20.03;;;15.03;;
20830;SDS011;10576;53.556;9.868;2023-04-16T02:36:36;21.23;;;14.95;;
20830;SDS011;10576;53.556;9.868;2023-04-16T02:39:02;22.40;;;15.15;;
20830;SDS011;10576;53.556;9.868;2023-04-16T02:41:28;19.17;;;15.27;;
20830;SDS011;10576;53.556;9.868;2023-04-16T02:43:54;23.00;;;15.65;;
20830;SDS011;10576;53.556;9.868;2023-04-16T02:46:20;21.05;;;15.73;;
20830;SDS011;10576;53.556;9.868;2023-04-16T02:48:46;21.57;;;16.07;;
20830;SDS011;10576;53.556;9.868;2023-04-16T02:51:11;20.10;;;15.70;;
20830;SDS011;10576;53.556;9.868;2023-04-16T02:53:37;20.03;;;15.13;;
20830;SDS011;10576;53.556;9.868;2023-04-16T02:56:03;21.27;;;15.57;;
20830;SDS011;10576;53.556;9.868;2023-04-16T02:58:29;21.15;;;16.48;;
20830;SDS011;10576;53.556;9.868;2023-04-16T03:00:54;22.02;;;16.15;;
20830;SDS011;10576;53.556;9.868;2023-04-16T03:03:20;22.03;;;16.60;;
20830;SDS011;10576;53.556;9.868;2023-04-16T03:05:46;23.80;;;17.02;;
20830;SDS011;10576;53.556;9.868;2023-04-16T03:08:12;22.13;;;17.10;;
20830;SDS011;10576;53.556;9.868;2023-04-16T03:10:38;22.85;;;17.33;;
20830;SDS011;10576;53.556;9.868;2023-04-16T03:13:04;23.67;;;17.38;;
20830;SDS011;10576;53.556;9.868;2023-04-16T03:15:30;22.33;;;17.60;;
20830;SDS011;10576;53.556;9.868;2023-04-16T03:17:55;22.33;;;16.75;;
20830;SDS011;10576;53.556;9.868;2023-04-16T03:20:21;22.58;;;17.30;;
20830;SDS011;10576;53.556;9.868;2023-04-16T03:22:47;23.15;;;17.00;;
20830;SDS011;10576;53.556;9.868;2023-04-16T03:25:13;21.50;;;16.85;;
20830;SDS011;10576;53.556;9.868;2023-04-16T03:27:39;22.35;;;17.17;;
20830;SDS011;10576;53.556;9.868;2023-04-16T03:30:07;23.00;;;17.92;;
20830;SDS011;10576;53.556;9.868;2023-04-16T03:32:36;22.92;;;17.30;;
20830;SDS011;10576;53.556;9.868;2023-04-16T03:35:02;23.63;;;17.17;;
20830;SDS011;10576;53.556;9.868;2023-04-16T03:37:28;21.77;;;17.08;;
20830;SDS011;10576;53.556;9.868;2023-04-16T03:39:54;23.07;;;16.60;;
20830;SDS011;10576;53.556;9.868;2023-04-16T03:42:20;22.53;;;17.57;;
20830;SDS011;10576;53.556;9.868;2023-04-16T03:44:45;21.60;;;17.40;;
20830;SDS011;10576;53.556;9.868;2023-04-16T03:47:11;22.50;;;17.37;;
20830;SDS011;10576;53.556;9.868;2023-04-16T03:49:37;22.57;;;17.27;;
20830;SDS011;10576;53.556;9.868;2023-04-16T03:52:02;24.17;;;16.93;;
20830;SDS011;10576;53.556;9.868;2023-04-16T03:54:28;22.13;;;16.63;;
20830;SDS011;10576;53.556;9.868;2023-04-16T03:56:54;21.27;;;16.13;;
20830;SDS011;10576;53.556;9.868;2023-04-16T03:59:21;23.30;;;17.10;;
20830;SDS011;10576;53.556;9.868;2023-04-16T04:01:46;23.52;;;16.70;;
20830;SDS011;10576;53.556;9.868;2023-04-16T04:04:12;24.88;;;17.05;;
20830;SDS011;10576;53.556;9.868;2023-04-16T04:06:38;21.42;;;17.17;;
20830;SDS011;10576;53.556;9.868;2023-04-16T04:09:04;21.57;;;16.67;;
20830;SDS011;10576;53.556;9.868;2023-04-16T04:11:30;22.73;;;16.20;;
20830;SDS011;10576;53.556;9.868;2023-04-16T04:13:56;22.07;;;17.27;;
20830;SDS011;10576;53.556;9.868;2023-04-16T04:16:21;23.03;;;16.70;;
20830;SDS011;10576;53.556;9.868;2023-04-16T04:18:47;21.97;;;16.30;;
20830;SDS011;10576;53.556;9.868;2023-04-16T04:21:12;22.33;;;16.57;;
20830;SDS011;10576;53.556;9.868;2023-04-16T04:23:38;21.53;;;16.87;;
20830;SDS011;10576;53.556;9.868;2023-04-16T04:26:05;21.50;;;16.58;;
20830;SDS011;10576;53.556;9.868;2023-04-16T04:28:31;23.55;;;17.30;;
20830;SDS011;10576;53.556;9.868;2023-04-16T04:30:58;22.15;;;16.30;;
20830;SDS011;10576;53.556;9.868;2023-04-16T04:33:24;21.33;;;16.40;;
20830;SDS011;10576;53.556;9.868;2023-04-16T04:35:50;21.92;;;16.88;;
20830;SDS011;10576;53.556;9.868;2023-04-16T04:38:16;23.55;;;15.82;;
20830;SDS011;10576;53.556;9.868;2023-04-16T04:40:44;21.55;;;16.42;;
20830;SDS011;10576;53.556;9.868;2023-04-16T04:43:10;21.73;;;17.27;;
20830;SDS011;10576;53.556;9.868;2023-04-16T04:45:36;21.50;;;16.83;;
20830;SDS011;10576;53.556;9.868;2023-04-16T04:48:01;19.63;;;16.30;;
20830;SDS011;10576;53.556;9.868;2023-04-16T04:50:27;23.30;;;17.37;;
20830;SDS011;10576;53.556;9.868;2023-04-16T04:52:53;54.27;;;49.33;;
20830;SDS011;10576;53.556;9.868;2023-04-16T04:55:18;103.13;;;95.45;;
20830;SDS011;10576;53.556;9.868;2023-04-16T04:57:44;74.28;;;67.85;;
20830;SDS011;10576;53.556;9.868;2023-04-16T05:00:10;22.50;;;16.63;;
20830;SDS011;10576;53.556;9.868;2023-04-16T05:02:36;21.70;;;15.93;;
20830;SDS011;10576;53.556;9.868;2023-04-16T05:05:02;22.42;;;16.00;;
20830;SDS011;10576;53.556;9.868;2023-04-16T05:07:28;20.98;;;16.45;;
20830;SDS011;10576;53.556;9.868;2023-04-16T05:09:54;21.27;;;16.83;;
20830;SDS011;10576;53.556;9.868;2023-04-16T05:12:20;19.97;;;16.00;;
20830;SDS011;10576;53.556;9.868;2023-04-16T05:14:46;20.07;;;15.60;;
20830;SDS011;10576;53.556;9.868;2023-04-16T05:17:11;22.13;;;16.23;;
20830;SDS011;10576;53.556;9.868;2023-04-16T05:19:37;22.23;;;15.67;;
20830;SDS011;10576;53.556;9.868;2023-04-16T05:22:03;22.03;;;16.00;;
20830;SDS011;10576;53.556;9.868;2023-04-16T05:24:28;21.08;;;16.27;;
20830;SDS011;10576;53.556;9.868;2023-04-16T05:26:55;23.67;;;16.88;;
20830;SDS011;10576;53.556;9.868;2023-04-16T05:29:21;23.85;;;16.55;;
20830;SDS011;10576;53.556;9.868;2023-04-16T05:31:46;21.63;;;16.52;;
20830;SDS011;10576;53.556;9.868;2023-04-16T05:34:12;23.00;;;15.88;;
20830;SDS011;10576;53.556;9.868;2023-04-16T05:36:38;22.23;;;17.02;;
20830;SDS011;10576;53.556;9.868;2023-04-16T05:39:04;21.40;;;16.25;;
20830;SDS011;10576;53.556;9.868;2023-04-16T05:41:31;20.98;;;16.33;;
20830;SDS011;10576;53.556;9.868;2023-04-16T05:43:57;21.58;;;16.33;;
20830;SDS011;10576;53.556;9.868;2023-04-16T05:46:23;22.15;;;16.50;;
20830;SDS011;10576;53.556;9.868;2023-04-16T05:48:48;22.30;;;16.55;;
20830;SDS011;10576;53.556;9.868;2023-04-16T05:51:14;20.63;;;17.08;;
20830;SDS011;10576;53.556;9.868;2023-04-16T05:53:40;24.10;;;17.33;;
20830;SDS011;10576;53.556;9.868;2023-04-16T05:56:06;21.90;;;17.20;;
20830;SDS011;10576;53.556;9.868;2023-04-16T05:58:32;22.13;;;16.05;;
20830;SDS011;10576;53.556;9.868;2023-04-16T06:00:58;23.48;;;16.75;;
20830;SDS011;10576;53.556;9.868;2023-04-16T06:03:25;21.70;;;16.67;;
20830;SDS011;10576;53.556;9.868;2023-04-16T06:05:51;23.43;;;16.50;;
20830;SDS011;10576;53.556;9.868;2023-04-16T06:08:16;25.10;;;16.38;;
20830;SDS011;10576;53.556;9.868;2023-04-16T06:10:44;23.10;;;17.20;;
20830;SDS011;10576;53.556;9.868;2023-04-16T06:13:11;23.45;;;17.33;;
20830;SDS011;10576;53.556;9.868;2023-04-16T06:15:36;21.48;;;16.45;;
20830;SDS011;10576;53.556;9.868;2023-04-16T06:18:02;25.00;;;16.75;;
20830;SDS011;10576;53.556;9.868;2023-04-16T06:20:28;23.00;;;16.80;;
20830;SDS011;10576;53.556;9.868;2023-04-16T06:22:54;22.75;;;16.35;;
20830;SDS011;10576;53.556;9.868;2023-04-16T06:25:20;21.50;;;16.90;;
20830;SDS011;10576;53.556;9.868;2023-04-16T06:27:46;21.30;;;16.75;;
20830;SDS011;10576;53.556;9.868;2023-04-16T06:30:12;23.35;;;15.82;;
20830;SDS011;10576;53.556;9.868;2023-04-16T06:32:38;22.98;;;16.40;;
20830;SDS011;10576;53.556;9.868;2023-04-16T06:35:04;22.92;;;16.27;;
20830;SDS011;10576;53.556;9.868;2023-04-16T06:37:30;21.15;;;16.27;;
20830;SDS011;10576;53.556;9.868;2023-04-16T06:39:56;24.20;;;16.43;;
20830;SDS011;10576;53.556;9.868;2023-04-16T06:42:22;22.97;;;15.60;;
20830;SDS011;10576;53.556;9.868;2023-04-16T06:44:47;22.70;;;16.92;;
20830;SDS011;10576;53.556;9.868;2023-04-16T06:47:13;21.35;;;15.50;;
20830;SDS011;10576;53.556;9.868;2023-04-16T06:49:39;20.98;;;15.75;;
20830;SDS011;10576;53.556;9.868;2023-04-16T06:52:05;19.40;;;16.10;;
20830;SDS011;10576;53.556;9.868;2023-04-16T06:54:31;20.90;;;16.65;;
20830;SDS011;10576;53.556;9.868;2023-04-16T06:56:57;31.50;;;22.08;;
20830;SDS011;10576;53.556;9.868;2023-04-16T06:59:22;22.23;;;16.00;;
20830;SDS011;10576;53.556;9.868;2023-04-16T07:01:48;21.93;;;16.53;;
20830;SDS011;10576;53.556;9.868;2023-04-16T07:04:14;24.60;;;15.87;;
20830;SDS011;10576;53.556;9.868;2023-04-16T07:06:39;22.50;;;15.53;;
20830;SDS011;10576;53.556;9.868;2023-04-16T07:09:05;21.90;;;16.37;;
20830;SDS011;10576;53.556;9.868;2023-04-16T07:11:31;22.63;;;16.50;;
20830;SDS011;10576;53.556;9.868;2023-04-16T07:13:58;22.13;;;15.70;;
20830;SDS011;10576;53.556;9.868;2023-04-16T07:16:24;20.70;;;15.52;;
20830;SDS011;10576;53.556;9.868;2023-04-16T07:18:49;21.02;;;15.65;;
20830;SDS011;10576;53.556;9.868;2023-04-16T07:21:15;21.33;;;15.45;;
20830;SDS011;10576;53.556;9.868;2023-04-16T07:23:40;19.08;;;15.73;;
20830;SDS011;10576;53.556;9.868;2023-04-16T07:26:06;22.98;;;15.95;;
20830;SDS011;10576;53.556;9.868;2023-04-16T07:28:32;19.90;;;15.43;;
20830;SDS011;10576;53.556;9.868;2023-04-16T07:30:57;21.00;;;15.73;;
20830;SDS011;10576;53.556;9.868;2023-04-16T07:33:23;19.60;;;15.32;;
20830;SDS011;10576;53.556;9.868;2023-04-16T07:35:49;19.27;;;14.90;;
20830;SDS011;10576;53.556;9.868;2023-04-16T07:38:15;19.13;;;14.88;;
20830;SDS011;10576;53.556;9.868;2023-04-16T07:40:41;19.52;;;14.93;;
20830;SDS011;10576;53.556;9.868;2023-04-16T07:43:06;23.17;;;15.00;;
20830;SDS011;10576;53.556;9.868;2023-04-16T07:45:33;18.17;;;14.77;;
20830;SDS011;10576;53.556;9.868;2023-04-16T07:47:59;21.88;;;15.43;;
20830;SDS011;10576;53.556;9.868;2023-04-16T07:50:24;20.33;;;14.65;;
20830;SDS011;10576;53.556;9.868;2023-04-16T07:52:50;20.02;;;14.85;;
20830;SDS011;10576;53.556;9.868;2023-04-16T07:55:15;19.45;;;14.15;;
20830;SDS011;10576;53.556;9.868;2023-04-16T07:57:41;19.23;;;14.35;;
20830;SDS011;10576;53.556;9.868;2023-04-16T08:00:07;18.60;;;14.20;;
20830;SDS011;10576;53.556;9.868;2023-04-16T08:02:34;18.65;;;14.48;;
20830;SDS011;10576;53.556;9.868;2023-04-16T08:05:00;20.57;;;14.57;;
20830;SDS011;10576;53.556;9.868;2023-04-16T08:07:25;18.83;;;13.93;;
20830;SDS011;10576;53.556;9.868;2023-04-16T08:09:51;20.70;;;14.57;;
20830;SDS011;10576;53.556;9.868;2023-04-16T08:12:18;19.35;;;14.25;;
20830;SDS011;10576;53.556;9.868;2023-04-16T08:14:45;18.20;;;14.15;;
20830;SDS011;10576;53.556;9.868;2023-04-16T08:17:11;19.10;;;14.10;;
20830;SDS011;10576;53.556;9.868;2023-04-16T08:19:38;19.85;;;14.38;;
20830;SDS011;10576;53.556;9.868;2023-04-16T08:22:04;15.98;;;13.40;;
20830;SDS011;10576;53.556;9.868;2023-04-16T08:24:30;18.23;;;13.68;;
20830;SDS011;10576;53.556;9.868;2023-04-16T08:26:56;16.95;;;13.55;;
20830;SDS011;10576;53.556;9.868;2023-04-16T08:29:21;17.13;;;13.52;;
20830;SDS011;10576;53.556;9.868;2023-04-16T08:31:50;16.23;;;13.33;;
20830;SDS011;10576;53.556;9.868;2023-04-16T08:34:19;16.35;;;13.20;;
20830;SDS011;10576;53.556;9.868;2023-04-16T08:36:45;18.30;;;13.25;;
20830;SDS011;10576;53.556;9.868;2023-04-16T08:39:11;17.30;;;12.75;;
20830;SDS011;10576;53.556;9.868;2023-04-16T08:41:37;18.73;;;13.52;;
20830;SDS011;10576;53.556;9.868;2023-04-16T08:44:10;16.13;;;12.93;;
20830;SDS011;10576;53.556;9.868;2023-04-16T08:46:50;16.77;;;13.27;;
20830;SDS011;10576;53.556;9.868;2023-04-16T08:49:22;17.60;;;13.07;;
20830;SDS011;10576;53.556;9.868;2023-04-16T08:51:49;17.00;;;12.75;;
20830;SDS011;10576;53.556;9.868;2023-04-16T08:56:56;18.70;;;12.50;;
20830;SDS011;10576;53.556;9.868;2023-04-16T08:59:24;15.48;;;12.55;;
20830;SDS011;10576;53.556;9.868;2023-04-16T09:01:50;17.23;;;12.90;;
20830;SDS011;10576;53.556;9.868;2023-04-16T09:04:21;15.55;;;13.20;;
20830;SDS011;10576;53.556;9.868;2023-04-16T09:06:50;18.95;;;12.90;;
20830;SDS011;10576;53.556;9.868;2023-04-16T09:09:17;17.92;;;12.75;;
20830;SDS011;10576;53.556;9.868;2023-04-16T09:11:45;16.20;;;12.93;;
20830;SDS011;10576;53.556;9.868;2023-04-16T09:14:13;17.67;;;12.82;;
20830;SDS011;10576;53.556;9.868;2023-04-16T09:16:39;15.15;;;12.77;;
20830;SDS011;10576;53.556;9.868;2023-04-16T09:19:05;15.40;;;12.70;;
20830;SDS011;10576;53.556;9.868;2023-04-16T09:21:31;19.20;;;13.25;;
20830;SDS011;10576;53.556;9.868;2023-04-16T09:23:57;15.60;;;12.57;;
20830;SDS011;10576;53.556;9.868;2023-04-16T09:26:24;15.15;;;12.02;;
20830;SDS011;10576;53.556;9.868;2023-04-16T09:28:51;16.60;;;12.07;;
20830;SDS011;10576;53.556;9.868;2023-04-16T09:31:17;14.95;;;12.30;;
20830;SDS011;10576;53.556;9.868;2023-04-16T09:33:43;17.88;;;12.23;;
20830;SDS011;10576;53.556;9.868;2023-04-16T09:36:24;16.30;;;12.43;;
20830;SDS011;10576;53.556;9.868;2023-04-16T09:38:52;15.63;;;11.97;;
20830;SDS011;10576;53.556;9.868;2023-04-16T09:41:18;16.67;;;12.27;;
20830;SDS011;10576;53.556;9.868;2023-04-16T09:46:20;16.57;;;12.07;;
20830;SDS011;10576;53.556;9.868;2023-04-16T09:48:46;14.70;;;12.13;;
20830;SDS011;10576;53.556;9.868;2023-04-16T09:51:12;16.77;;;12.27;;
20830;SDS011;10576;53.556;9.868;2023-04-16T09:53:37;14.37;;;11.63;;
20830;SDS011;10576;53.556;9.868;2023-04-16T09:56:06;14.03;;;11.87;;
20830;SDS011;10576;53.556;9.868;2023-04-16T09:58:34;15.75;;;12.27;;
20830;SDS011;10576;53.556;9.868;2023-04-16T10:01:02;14.47;;;11.67;;
20830;SDS011;10576;53.556;9.868;2023-04-16T10:03:37;15.65;;;12.10;;
20830;SDS011;10576;53.556;9.868;2023-04-16T10:08:43;17.40;;;12.10;;
20830;SDS011;10576;53.556;9.868;2023-04-16T10:11:12;15.07;;;12.07;;
20830;SDS011;10576;53.556;9.868;2023-04-16T10:13:38;15.75;;;11.98;;
20830;SDS011;10576;53.556;9.868;2023-04-16T10:16:04;15.90;;;12.50;;
20830;SDS011;10576;53.556;9.868;2023-04-16T10:18:31;14.77;;;12.15;;
20830;SDS011;10576;53.556;9.868;2023-04-16T10:20:59;16.73;;;12.15;;
20830;SDS011;10576;53.556;9.868;2023-04-16T10:23:25;16.08;;;12.00;;
20830;SDS011;10576;53.556;9.868;2023-04-16T10:25:51;12.83;;;11.43;;
20830;SDS011;10576;53.556;9.868;2023-04-16T10:28:19;14.45;;;12.27;;
20830;SDS011;10576;53.556;9.868;2023-04-16T10:30:46;15.07;;;11.40;;
20830;SDS011;10576;53.556;9.868;2023-04-16T10:33:20;16.23;;;12.13;;
20830;SDS011;10576;53.556;9.868;2023-04-16T10:35:47;13.63;;;11.93;;
20830;SDS011;10576;53.556;9.868;2023-04-16T10:38:21;14.13;;;11.15;;
20830;SDS011;10576;53.556;9.868;2023-04-16T10:41:24;15.02;;;12.05;;
20830;SDS011;10576;53.556;9.868;2023-04-16T10:43:47;17.65;;;11.55;;
20830;SDS011;10576;53.556;9.868;2023-04-16T10:48:49;14.48;;;11.80;;
20830;SDS011;10576;53.556;9.868;2023-04-16T10:51:31;13.88;;;11.63;;
20830;SDS011;10576;53.556;9.868;2023-04-16T10:56:32;14.40;;;11.63;;
20830;SDS011;10576;53.556;9.868;2023-04-16T10:58:59;14.52;;;11.60;;
20830;SDS011;10576;53.556;9.868;2023-04-16T11:01:35;14.30;;;12.50;;
20830;SDS011;10576;53.556;9.868;2023-04-16T11:04:44;14.55;;;12.00;;
20830;SDS011;10576;53.556;9.868;2023-04-16T11:09:50;14.30;;;11.75;;
20830;SDS011;10576;53.556;9.868;2023-04-16T11:17:41;15.25;;;12.85;;
20830;SDS011;10576;53.556;9.868;2023-04-16T11:20:17;15.10;;;12.32;;
20830;SDS011;10576;53.556;9.868;2023-04-16T11:22:43;15.88;;;12.23;;
20830;SDS011;10576;53.556;9.868;2023-04-16T11:25:09;15.38;;;12.07;;
20830;SDS011;10576;53.556;9.868;2023-04-16T11:27:36;17.15;;;12.45;;
20830;SDS011;10576;53.556;9.868;2023-04-16T11:30:05;15.37;;;12.23;;
20830;SDS011;10576;53.556;9.868;2023-04-16T11:32:34;15.80;;;12.80;;
20830;SDS011;10576;53.556;9.868;2023-04-16T11:35:01;15.10;;;12.50;;
20830;SDS011;10576;53.556;9.868;2023-04-16T11:37:33;14.38;;;12.23;;
20830;SDS011;10576;53.556;9.868;2023-04-16T11:40:00;16.27;;;12.55;;
20830;SDS011;10576;53.556;9.868;2023-04-16T11:42:26;17.95;;;13.07;;
20830;SDS011;10576;53.556;9.868;2023-04-16T11:44:56;17.42;;;12.32;;
20830;SDS011;10576;53.556;9.868;2023-04-16T11:47:24;17.38;;;12.93;;
20830;SDS011;10576;53.556;9.868;2023-04-16T11:49:50;15.00;;;12.43;;
20830;SDS011;10576;53.556;9.868;2023-04-16T11:52:29;16.27;;;12.70;;
20830;SDS011;10576;53.556;9.868;2023-04-16T11:54:56;16.13;;;12.15;;
20830;SDS011;10576;53.556;9.868;2023-04-16T11:59:53;15.93;;;12.50;;
20830;SDS011;10576;53.556;9.868;2023-04-16T12:02:35;15.90;;;11.85;;
20830;SDS011;10576;53.556;9.868;2023-04-16T12:05:05;16.92;;;13.40;;
20830;SDS011;10576;53.556;9.868;2023-04-16T12:07:42;15.95;;;12.70;;
20830;SDS011;10576;53.556;9.868;2023-04-16T12:10:10;17.25;;;12.48;;
20830;SDS011;10576;53.556;9.868;2023-04-16T12:12:35;39.10;;;35.17;;
20830;SDS011;10576;53.556;9.868;2023-04-16T12:15:01;15.37;;;12.73;;
20830;SDS011;10576;53.556;9.868;2023-04-16T12:17:28;16.15;;;12.20;;
20830;SDS011;10576;53.556;9.868;2023-04-16T12:19:59;14.95;;;12.07;;
20830;SDS011;10576;53.556;9.868;2023-04-16T12:22:31;16.85;;;12.65;;
20830;SDS011;10576;53.556;9.868;2023-04-16T12:24:59;15.60;;;12.10;;
20830;SDS011;10576;53.556;9.868;2023-04-16T12:30:23;16.52;;;12.57;;
20830;SDS011;10576;53.556;9.868;2023-04-16T12:32:52;17.08;;;12.57;;
20830;SDS011;10576;53.556;9.868;2023-04-16T12:35:36;16.17;;;12.55;;
20830;SDS011;10576;53.556;9.868;2023-04-16T12:38:02;15.60;;;12.73;;
20830;SDS011;10576;53.556;9.868;2023-04-16T12:40:28;14.73;;;12.55;;
20830;SDS011;10576;53.556;9.868;2023-04-16T12:42:53;14.95;;;12.48;;
20830;SDS011;10576;53.556;9.868;2023-04-16T12:45:19;16.42;;;12.90;;
20830;SDS011;10576;53.556;9.868;2023-04-16T12:47:46;15.40;;;12.48;;
20830;SDS011;10576;53.556;9.868;2023-04-16T12:50:11;16.60;;;13.43;;
20830;SDS011;10576;53.556;9.868;2023-04-16T12:52:37;16.77;;;14.10;;
20830;SDS011;10576;53.556;9.868;2023-04-16T12:55:03;17.58;;;13.98;;
20830;SDS011;10576;53.556;9.868;2023-04-16T12:57:29;17.85;;;13.55;;
20830;SDS011;10576;53.556;9.868;2023-04-16T12:59:55;17.08;;;13.18;;
20830;SDS011;10576;53.556;9.868;2023-04-16T13:02:21;15.18;;;13.40;;
20830;SDS011;10576;53.556;9.868;2023-04-16T13:04:47;17.10;;;13.83;;
20830;SDS011;10576;53.556;9.868;2023-04-16T13:07:16;20.52;;;13.73;;
20830;SDS011;10576;53.556;9.868;2023-04-16T13:09:43;16.50;;;13.43;;
20830;SDS011;10576;53.556;9.868;2023-04-16T13:12:09;18.35;;;13.20;;
20830;SDS011;10576;53.556;9.868;2023-04-16T13:14:35;17.92;;;13.48;;
20830;SDS011;10576;53.556;9.868;2023-04-16T13:17:01;16.13;;;13.07;;
20830;SDS011;10576;53.556;9.868;2023-04-16T13:19:28;15.65;;;13.35;;
20830;SDS011;10576;53.556;9.868;2023-04-16T13:21:54;14.57;;;12.75;;
20830;SDS011;10576;53.556;9.868;2023-04-16T13:24:19;15.90;;;13.13;;
20830;SDS011;10576;53.556;9.868;2023-04-16T13:26:45;15.60;;;13.70;;
20830;SDS011;10576;53.556;9.868;2023-04-16T13:29:11;14.98;;;13.18;;
20830;SDS011;10576;53.556;9.868;2023-04-16T13:31:37;15.38;;;13.57;;
20830;SDS011;10576;53.556;9.868;2023-04-16T13:34:02;17.50;;;13.13;;
20830;SDS011;10576;53.556;9.868;2023-04-16T13:36:30;15.60;;;13.05;;
20830;SDS011;10576;53.556;9.868;2023-04-16T13:38:57;16.70;;;13.50;;
20830;SDS011;10576;53.556;9.868;2023-04-16T13:41:23;16.20;;;13.60;;
20830;SDS011;10576;53.556;9.868;2023-04-16T13:43:50;16.60;;;13.55;;
20830;SDS011;10576;53.556;9.868;2023-04-16T13:46:15;16.52;;;13.07;;
20830;SDS011;10576;53.556;9.868;2023-04-16T13:48:42;16.30;;;13.63;;
20830;SDS011;10576;53.556;9.868;2023-04-16T13:51:08;16.08;;;14.38;;
20830;SDS011;10576;53.556;9.868;2023-04-16T13:53:34;17.17;;;13.77;;
20830;SDS011;10576;53.556;9.868;2023-04-16T13:56:00;15.33;;;13.73;;
20830;SDS011;10576;53.556;9.868;2023-04-16T13:58:27;15.32;;;13.70;;
20830;SDS011;10576;53.556;9.868;2023-04-16T14:00:53;16.98;;;14.27;;
20830;SDS011;10576;53.556;9.868;2023-04-16T14:03:19;16.58;;;14.00;;
20830;SDS011;10576;53.556;9.868;2023-04-16T14:05:44;16.42;;;14.35;;
20830;SDS011;10576;53.556;9.868;2023-04-16T14:08:10;18.52;;;14.02;;
20830;SDS011;10576;53.556;9.868;2023-04-16T14:10:38;14.85;;;13.32;;
20830;SDS011;10576;53.556;9.868;2023-04-16T14:13:05;15.15;;;13.40;;
20830;SDS011;10576;53.556;9.868;2023-04-16T14:15:31;18.67;;;14.57;;
20830;SDS011;10576;53.556;9.868;2023-04-16T14:17:56;20.83;;;13.63;;
20830;SDS011;10576;53.556;9.868;2023-04-16T14:20:22;17.40;;;14.00;;
20830;SDS011;10576;53.556;9.868;2023-04-16T14:22:48;15.57;;;13.93;;
20830;SDS011;10576;53.556;9.868;2023-04-16T14:25:13;15.88;;;13.15;;
20830;SDS011;10576;53.556;9.868;2023-04-16T14:27:39;14.50;;;13.00;;
20830;SDS011;10576;53.556;9.868;2023-04-16T14:30:05;15.77;;;14.15;;
20830;SDS011;10576;53.556;9.868;2023-04-16T14:32:31;17.17;;;13.80;;
20830;SDS011;10576;53.556;9.868;2023-04-16T14:34:57;16.45;;;14.15;;
20830;SDS011;10576;53.556;9.868;2023-04-16T14:37:23;16.25;;;13.90;;
20830;SDS011;10576;53.556;9.868;2023-04-16T14:39:49;16.13;;;13.77;;
20830;SDS011;10576;53.556;9.868;2023-04-16T14:42:14;15.90;;;14.18;;
20830;SDS011;10576;53.556;9.868;2023-04-16T14:44:40;15.40;;;13.80;;